Time;durP1;ratioP1;P1;durP2;ratioP2;P2;SDS_P1;SDS_P2;PMS_P1;PMS_P2;Temp;Humidity;BMP_temperature;BMP_pressure;BME280_temperature;BME280_humidity;BME280_pressure;Samples;Min_cycle;Max_cycle;Signal;HPM_P1;HPM_P2
2023/04/17 00:01:36;;;;;;;31.30;24.77;;;;;;;8.55;100.00;102510.59;5025070;28;20160;-57
2023/04/17 00:04:02;;;;;;;37.75;25.20;;;;;;;8.56;100.00;102512.28;5027522;28;20022;-59
2023/04/17 00:06:28;;;;;;;33.95;25.40;;;;;;;8.54;100.00;102517.66;5026608;28;20029;-59
2023/04/17 00:08:54;;;;;;;32.80;24.67;;;;;;;8.55;100.00;102511.44;5050085;28;20103;-59
2023/04/17 00:11:20;;;;;;;33.03;25.23;;;;;;;8.56;100.00;102507.88;5049434;28;20132;-58
2023/04/17 00:13:45;;;;;;;37.67;25.92;;;;;;;8.57;100.00;102512.22;5049929;28;20521;-58
2023/04/17 00:16:12;;;;;;;35.88;25.13;;;;;;;8.58;100.00;102513.13;5049504;28;20037;-58
2023/04/17 00:18:38;;;;;;;34.67;25.00;;;;;;;8.57;100.00;102509.59;5038898;28;20021;-58
2023/04/17 00:21:03;;;;;;;35.95;26.20;;;;;;;8.55;100.00;102507.94;5026874;28;20121;-58
2023/04/17 00:23:28;;;;;;;37.25;26.52;;;;;;;8.55;100.00;102508.78;5034276;28;20080;-59
2023/04/17 00:25:53;;;;;;;37.83;27.02;;;;;;;8.54;100.00;102509.72;5032142;28;20484;-58
2023/04/17 00:28:19;;;;;;;34.80;25.63;;;;;;;8.55;100.00;102498.19;5044783;28;20071;-58
2023/04/17 00:30:45;;;;;;;35.83;26.33;;;;;;;8.55;100.00;102497.34;5026126;28;20094;-56
2023/04/17 00:33:10;;;;;;;36.30;26.58;;;;;;;8.52;100.00;102488.59;5039014;28;20098;-58
2023/04/17 00:35:35;;;;;;;35.80;25.55;;;;;;;8.54;100.00;102490.31;5035918;28;20474;-55
2023/04/17 00:38:01;;;;;;;35.50;26.10;;;;;;;8.50;100.00;102486.94;5037558;28;20021;-57
2023/04/17 00:40:26;;;;;;;34.45;26.05;;;;;;;8.51;100.00;102481.59;5028081;28;20037;-59
2023/04/17 00:42:54;;;;;;;34.28;25.17;;;;;;;8.50;100.00;102484.28;5043434;28;20063;-59
2023/04/17 00:45:20;;;;;;;38.47;25.67;;;;;;;8.49;100.00;102475.50;5033732;28;20029;-57
2023/04/17 00:47:47;;;;;;;35.65;26.27;;;;;;;8.48;100.00;102471.13;5044804;28;20032;-57
2023/04/17 00:50:12;;;;;;;34.08;26.25;;;;;;;8.47;100.00;102474.69;5040852;28;20486;-59
2023/04/17 00:52:38;;;;;;;39.47;27.55;;;;;;;8.48;100.00;102475.56;5038525;28;20029;-58
2023/04/17 00:55:04;;;;;;;31.50;25.20;;;;;;;8.50;100.00;102476.34;5032822;28;20040;-58
2023/04/17 00:57:29;;;;;;;37.20;24.20;;;;;;;8.48;100.00;102470.25;5036359;28;20021;-59
2023/04/17 00:59:56;;;;;;;31.60;25.08;;;;;;;8.47;100.00;102477.31;5048663;28;20063;-59
2023/04/17 01:02:22;;;;;;;33.53;24.38;;;;;;;8.45;100.00;102476.53;5032188;28;20033;-58
2023/04/17 01:04:47;;;;;;;30.77;23.52;;;;;;;8.42;100.00;102473.97;5019359;28;20030;-59
2023/04/17 01:07:12;;;;;;;29.90;23.05;;;;;;;8.40;100.00;102483.78;5039465;28;20413;-58
2023/04/17 01:09:38;;;;;;;27.92;22.33;;;;;;;8.40;100.00;102482.94;5036125;28;20536;-57
2023/04/17 01:12:16;;;;;;;30.75;22.63;;;;;;;8.39;100.00;102481.19;5037976;28;20107;-57
2023/04/17 01:14:41;;;;;;;34.67;23.58;;;;;;;8.34;100.00;102482.25;5046919;28;20025;-59
2023/04/17 01:17:06;;;;;;;27.27;21.27;;;;;;;8.36;100.00;102486.59;5048140;28;20035;-59
2023/04/17 01:19:32;;;;;;;30.20;23.50;;;;;;;8.35;100.00;102488.41;5035488;28;20029;-59
2023/04/17 01:21:57;;;;;;;32.53;22.83;;;;;;;8.36;100.00;102492.78;5045130;28;20430;-58
2023/04/17 01:24:22;;;;;;;30.48;23.55;;;;;;;8.34;100.00;102481.38;5041202;28;20025;-59
2023/04/17 01:26:48;;;;;;;30.77;23.27;;;;;;;8.34;100.00;102489.31;5036379;28;20033;-59
2023/04/17 01:29:13;;;;;;;28.85;22.58;;;;;;;8.33;100.00;102491.09;5037896;28;20029;-59
2023/04/17 01:31:38;;;;;;;27.25;22.27;;;;;;;8.34;100.00;102481.38;5042849;28;20041;-56
2023/04/17 01:34:04;;;;;;;29.88;22.17;;;;;;;8.31;100.00;102492.97;5037478;28;20025;-59
2023/04/17 01:36:30;;;;;;;30.20;23.38;;;;;;;8.30;100.00;102491.22;5044792;28;20025;-59
2023/04/17 01:38:55;;;;;;;30.77;23.15;;;;;;;8.29;100.00;102486.88;5043008;28;20063;-59
2023/04/17 01:41:21;;;;;;;31.75;22.30;;;;;;;8.28;100.00;102494.88;5047635;28;20033;-58
2023/04/17 01:43:46;;;;;;;32.63;23.80;;;;;;;8.30;100.00;102498.31;5047468;28;20694;-58
2023/04/17 01:46:12;;;;;;;29.80;23.42;;;;;;;8.30;100.00;102490.38;5045130;28;20064;-58
2023/04/17 01:48:38;;;;;;;33.20;24.23;;;;;;;8.30;100.00;102493.03;5046785;28;20029;-60
2023/04/17 01:51:04;;;;;;;34.92;23.83;;;;;;;8.29;100.00;102488.63;5046382;28;20099;-57
2023/04/17 01:53:30;;;;;;;31.45;23.00;;;;;;;8.28;100.00;102490.44;5033352;28;20041;-58
2023/04/17 01:55:56;;;;;;;31.70;22.50;;;;;;;8.27;100.00;102488.69;5039812;28;20017;-59
2023/04/17 01:58:21;;;;;;;32.20;23.38;;;;;;;8.26;100.00;102489.63;5035789;28;20048;-59
2023/04/17 02:00:48;;;;;;;30.52;22.75;;;;;;;8.27;100.00;102494.00;5034933;28;20083;-58
2023/04/17 02:03:13;;;;;;;29.55;22.15;;;;;;;8.27;100.00;102494.00;5028551;28;20033;-58
2023/04/17 02:05:38;;;;;;;32.00;22.88;;;;;;;8.26;100.00;102491.41;5017894;28;20415;-58
2023/04/17 02:08:04;;;;;;;29.45;21.33;;;;;;;8.24;100.00;102499.41;5036014;28;20394;-59
2023/04/17 02:10:29;;;;;;;28.77;22.40;;;;;;;8.22;100.00;102489.81;5044999;28;20049;-58
2023/04/17 02:12:55;;;;;;;31.50;21.35;;;;;;;8.21;100.00;102498.66;5032487;28;20503;-58
2023/04/17 02:15:20;;;;;;;32.70;22.88;;;;;;;8.21;100.00;102493.38;5036104;28;20032;-58
2023/04/17 02:17:46;;;;;;;30.75;21.48;;;;;;;8.22;100.00;102498.63;5036940;28;20017;-59
2023/04/17 02:20:11;;;;;;;28.63;21.98;;;;;;;8.22;100.00;102489.81;5041399;28;20021;-56
2023/04/17 02:22:37;;;;;;;29.23;21.23;;;;;;;8.22;100.00;102490.66;5030917;28;20029;-58
2023/04/17 02:25:02;;;;;;;29.15;21.95;;;;;;;8.21;100.00;102502.19;5042479;28;20104;-58
2023/04/17 02:27:28;;;;;;;31.63;21.90;;;;;;;8.19;100.00;102496.09;5027424;28;20057;-58
2023/04/17 02:29:54;;;;;;;33.10;21.58;;;;;;;8.18;100.00;102489.09;5034946;28;20508;-58
2023/04/17 02:32:19;;;;;;;31.20;22.85;;;;;;;8.21;100.00;102493.38;5017979;28;20034;-59
2023/04/17 02:34:44;;;;;;;28.50;22.63;;;;;;;8.20;100.00;102489.88;5016286;28;20022;-58
2023/04/17 02:37:10;;;;;;;30.05;22.27;;;;;;;8.20;100.00;102492.53;5019224;28;20383;-58
2023/04/17 02:39:35;;;;;;;33.22;23.50;;;;;;;8.19;100.00;102488.16;5025018;28;20030;-60
2023/04/17 02:42:03;;;;;;;32.10;23.20;;;;;;;8.20;100.00;102496.97;5030034;28;20112;-56
2023/04/17 02:44:28;;;;;;;32.05;22.23;;;;;;;8.19;100.00;102492.59;5031541;28;20521;-58
2023/04/17 02:46:53;;;;;;;31.40;23.80;;;;;;;8.18;100.00;102494.38;5040327;28;20108;-57
2023/04/17 02:49:19;;;;;;;32.10;23.35;;;;;;;8.18;100.00;102494.38;5030589;28;20398;-57
2023/04/17 02:51:44;;;;;;;29.88;23.45;;;;;;;8.18;100.00;102489.09;5027369;28;20046;-58
2023/04/17 02:54:09;;;;;;;34.05;24.58;;;;;;;8.14;100.00;102495.41;5048859;28;20056;-59
2023/04/17 02:56:35;;;;;;;34.35;24.92;;;;;;;8.11;100.00;102490.22;5050322;28;20032;-58
2023/04/17 02:59:00;;;;;;;34.67;25.50;;;;;;;8.12;100.00;102498.13;5028798;28;20030;-59
2023/04/17 03:01:26;;;;;;;30.42;23.65;;;;;;;8.09;100.00;102500.03;5027277;28;20037;-59
2023/04/17 03:03:51;;;;;;;34.90;25.45;;;;;;;8.07;100.00;102494.78;5039435;28;20025;-58
2023/04/17 03:06:17;;;;;;;34.97;25.38;;;;;;;8.08;100.00;102495.69;5031972;28;20171;-58
2023/04/17 03:08:42;;;;;;;33.10;23.80;;;;;;;8.09;100.00;102497.38;5022723;28;20079;-59
2023/04/17 03:11:07;;;;;;;36.00;26.27;;;;;;;8.07;100.00;102499.22;5023791;28;20050;-57
2023/04/17 03:13:36;;;;;;;36.85;26.05;;;;;;;8.07;100.00;102504.53;5035161;28;20497;-57
2023/04/17 03:16:03;;;;;;;35.95;24.70;;;;;;;8.09;100.00;102502.66;5035547;28;20096;-58
2023/04/17 03:18:29;;;;;;;36.35;26.00;;;;;;;8.06;100.00;102500.13;5031585;28;20033;-58
2023/04/17 03:20:54;;;;;;;34.63;26.67;;;;;;;8.05;100.00;102504.59;5045932;28;20390;-58
2023/04/17 03:23:20;;;;;;;39.45;26.33;;;;;;;8.05;100.00;102503.72;5032609;28;20032;-59
2023/04/17 03:25:45;;;;;;;38.30;25.90;;;;;;;8.04;100.00;102509.94;5035053;28;20029;-58
2023/04/17 03:28:11;;;;;;;38.45;26.35;;;;;;;8.01;100.00;102510.94;5040810;28;20021;-56
2023/04/17 03:30:36;;;;;;;37.38;26.48;;;;;;;8.02;100.00;102503.84;5044153;28;20029;-57
2023/04/17 03:33:01;;;;;;;40.05;26.02;;;;;;;8.02;100.00;102503.84;5041506;28;20040;-57
2023/04/17 03:35:26;;;;;;;38.63;26.45;;;;;;;8.02;100.00;102509.13;5033389;28;20523;-58
2023/04/17 03:37:52;;;;;;;38.92;27.27;;;;;;;8.00;100.00;102503.91;5035136;28;20029;-58
2023/04/17 03:40:17;;;;;;;42.35;28.15;;;;;;;7.99;100.00;102502.16;5034635;28;20140;-55
2023/04/17 03:42:42;;;;;;;41.92;27.48;;;;;;;8.00;100.00;102505.69;5044524;28;20407;-53
2023/04/17 03:45:08;;;;;;;39.00;27.48;;;;;;;8.00;100.00;102500.41;5024797;28;20021;-58
2023/04/17 03:47:33;;;;;;;41.35;27.10;;;;;;;7.99;100.00;102501.31;5034363;28;20055;-58
2023/04/17 03:49:59;;;;;;;36.85;26.23;;;;;;;7.99;100.00;102504.81;5034400;28;20025;-58
2023/04/17 03:52:24;;;;;;;37.22;26.67;;;;;;;7.98;100.00;102497.81;5030231;28;20030;-58
2023/04/17 03:54:50;;;;;;;34.80;26.27;;;;;;;7.98;100.00;102500.47;5034220;28;20037;-57
2023/04/17 03:57:15;;;;;;;37.05;26.15;;;;;;;7.97;100.00;102493.44;5034511;28;20021;-56
2023/04/17 03:59:41;;;;;;;37.38;25.65;;;;;;;7.95;100.00;102495.28;5034909;28;20032;-58
2023/04/17 04:02:06;;;;;;;35.42;25.55;;;;;;;7.96;100.00;102502.31;5028403;28;20025;-58
2023/04/17 04:04:31;;;;;;;38.30;26.38;;;;;;;7.94;100.00;102505.00;5032893;28;20022;-59
2023/04/17 04:06:56;;;;;;;34.50;24.92;;;;;;;7.94;100.00;102507.66;5042531;28;20029;-58
2023/04/17 04:09:23;;;;;;;36.67;26.55;;;;;;;7.95;100.00;102506.72;5026888;28;20037;-58
2023/04/17 04:11:48;;;;;;;35.53;25.55;;;;;;;7.91;100.00;102502.47;5030167;28;20092;-58
2023/04/17 04:14:14;;;;;;;35.63;25.38;;;;;;;7.92;100.00;102498.91;5033668;28;20034;-58
2023/04/17 04:16:39;;;;;;;36.05;26.38;;;;;;;7.92;100.00;102498.91;5034000;28;20024;-57
2023/04/17 04:19:04;;;;;;;35.75;26.33;;;;;;;7.93;100.00;102502.44;5028651;28;20037;-55
2023/04/17 04:21:30;;;;;;;38.38;25.75;;;;;;;7.88;100.00;102501.75;5040558;28;20021;-58
2023/04/17 04:23:55;;;;;;;39.75;26.42;;;;;;;7.88;100.00;102499.09;5033887;28;20021;-59
2023/04/17 04:26:20;;;;;;;36.10;25.50;;;;;;;7.87;100.00;102502.66;5032605;28;20029;-58
2023/04/17 04:28:46;;;;;;;38.13;26.75;;;;;;;7.85;100.00;102496.56;5020281;28;20380;-58
2023/04/17 04:31:13;;;;;;;33.90;25.80;;;;;;;7.82;100.00;102500.19;5034065;28;20022;-59
2023/04/17 04:33:38;;;;;;;36.00;26.38;;;;;;;7.84;100.00;102508.91;5033408;28;20022;-59
2023/04/17 04:36:04;;;;;;;37.15;26.60;;;;;;;7.84;100.00;102505.41;5025500;28;20029;-59
2023/04/17 04:38:31;;;;;;;30.67;24.30;;;;;;;7.84;100.00;102511.56;5036620;28;20029;-59
2023/04/17 04:41:00;;;;;;;34.28;25.63;;;;;;;7.86;100.00;102520.31;5038043;28;20072;-59
2023/04/17 04:43:29;;;;;;;34.88;25.60;;;;;;;7.87;100.00;102519.38;5036062;28;20112;-58
2023/04/17 04:45:55;;;;;;;36.42;26.92;;;;;;;7.88;100.00;102514.97;5047539;28;20044;-59
2023/04/17 04:48:20;;;;;;;40.55;27.52;;;;;;;7.82;100.00;102518.69;5041796;28;20482;-58
2023/04/17 04:50:46;;;;;;;36.78;26.25;;;;;;;7.79;100.00;102521.47;5048149;28;20058;-59
2023/04/17 04:53:11;;;;;;;36.75;25.88;;;;;;;7.80;100.00;102524.97;5039832;28;20029;-57
2023/04/17 04:55:36;;;;;;;36.35;26.65;;;;;;;7.80;100.00;102520.53;5045246;28;20021;-59
2023/04/17 04:58:01;;;;;;;35.70;26.17;;;;;;;7.80;100.00;102520.53;5034661;28;20100;-58
2023/04/17 05:00:27;;;;;;;36.65;25.92;;;;;;;7.80;100.00;102524.97;5044279;28;20036;-59
2023/04/17 05:02:52;;;;;;;35.42;27.05;;;;;;;7.79;100.00;102513.53;5035934;28;20516;-58
2023/04/17 05:05:17;;;;;;;35.47;27.17;;;;;;;7.79;100.00;102521.47;5038016;28;20546;-59
2023/04/17 05:07:43;;;;;;;35.53;25.48;;;;;;;7.77;100.00;102523.31;5033091;28;20029;-58
2023/04/17 05:10:08;;;;;;;35.00;27.63;;;;;;;7.76;100.00;102535.69;5034659;28;20515;-59
2023/04/17 05:12:34;;;;;;;35.67;27.70;;;;;;;7.77;100.00;102531.25;5032900;28;20029;-58
2023/04/17 05:14:59;;;;;;;39.38;28.15;;;;;;;7.77;100.00;102533.88;5032994;28;20021;-59
2023/04/17 05:17:24;;;;;;;37.28;27.70;;;;;;;7.76;100.00;102538.31;5033149;28;20071;-59
2023/04/17 05:19:50;;;;;;;39.13;26.60;;;;;;;7.75;100.00;102533.94;5029499;28;20121;-59
2023/04/17 05:22:15;;;;;;;35.72;27.08;;;;;;;7.74;100.00;102542.81;5033041;28;20072;-59
2023/04/17 05:24:41;;;;;;;39.75;27.73;;;;;;;7.74;100.00;102541.94;5049644;28;20025;-59
2023/04/17 05:27:06;;;;;;;36.30;26.80;;;;;;;7.71;100.00;102549.97;5025549;28;20030;-59
2023/04/17 05:29:31;;;;;;;38.92;27.85;;;;;;;7.71;100.00;102547.31;5032672;28;20029;-59
2023/04/17 05:31:57;;;;;;;39.47;27.95;;;;;;;7.72;100.00;102555.22;5037005;28;20026;-59
2023/04/17 05:34:22;;;;;;;36.60;27.50;;;;;;;7.72;100.00;102546.41;5046949;28;20108;-59
2023/04/17 05:36:47;;;;;;;40.53;28.92;;;;;;;7.71;100.00;102542.94;5041939;28;20383;-58
2023/04/17 05:39:13;;;;;;;37.78;28.77;;;;;;;7.73;100.00;102545.50;5047677;28;20025;-59
2023/04/17 05:41:38;;;;;;;41.35;28.65;;;;;;;7.76;100.00;102548.00;5020806;28;20352;-59
2023/04/17 05:44:03;;;;;;;38.05;29.33;;;;;;;7.76;100.00;102548.91;5024530;28;20040;-59
2023/04/17 05:46:29;;;;;;;41.20;28.08;;;;;;;7.77;100.00;102547.09;5025826;28;20035;-57
2023/04/17 05:48:54;;;;;;;37.90;29.25;;;;;;;7.76;100.00;102554.19;5033066;28;20099;-61
2023/04/17 05:51:19;;;;;;;41.58;28.92;;;;;;;7.77;100.00;102555.91;5033272;28;20076;-61
2023/04/17 05:53:45;;;;;;;36.47;28.38;;;;;;;7.78;100.00;102552.34;5028533;28;20028;-61
2023/04/17 05:56:10;;;;;;;40.95;29.70;;;;;;;7.75;100.00;102555.09;5029159;28;20112;-60
2023/04/17 05:58:36;;;;;;;41.05;29.15;;;;;;;7.75;100.00;102552.44;5032983;28;20288;-61
2023/04/17 06:01:04;;;;;;;39.15;29.20;;;;;;;7.75;100.00;102554.25;5010001;28;20017;-62
2023/04/17 06:03:30;;;;;;;40.38;29.80;;;;;;;7.77;100.00;102555.91;5013356;28;20037;-61
2023/04/17 06:05:56;;;;;;;38.47;28.98;;;;;;;7.76;100.00;102558.59;5023672;28;20169;-61
2023/04/17 06:08:21;;;;;;;41.28;30.75;;;;;;;7.76;100.00;102563.88;5027499;28;20115;-61
2023/04/17 06:10:47;;;;;;;40.83;30.15;;;;;;;7.76;100.00;102555.94;5029616;28;20076;-60
2023/04/17 06:13:13;;;;;;;42.40;30.48;;;;;;;7.73;100.00;102566.66;5019935;28;20037;-62
2023/04/17 06:15:38;;;;;;;42.10;29.88;;;;;;;7.74;100.00;102571.03;5025130;28;20113;-61
2023/04/17 06:18:03;;;;;;;42.80;30.70;;;;;;;7.73;100.00;102569.31;5028053;28;20413;-61
2023/04/17 06:20:29;;;;;;;41.97;30.88;;;;;;;7.73;100.00;102570.16;5018177;28;20034;-61
2023/04/17 06:22:55;;;;;;;42.53;30.80;;;;;;;7.75;100.00;102576.25;5015328;28;20052;-61
2023/04/17 06:25:21;;;;;;;40.75;29.48;;;;;;;7.75;100.00;102570.97;5015104;28;20034;-61
2023/04/17 06:27:46;;;;;;;45.55;30.80;;;;;;;7.75;100.00;102570.97;5018789;28;20108;-61
2023/04/17 06:30:12;;;;;;;43.50;30.52;;;;;;;7.74;100.00;102579.84;5018734;28;20033;-60
2023/04/17 06:32:40;;;;;;;40.55;31.20;;;;;;;7.72;100.00;102581.66;5018183;28;20049;-60
2023/04/17 06:35:06;;;;;;;42.72;30.88;;;;;;;7.71;100.00;102585.25;5019847;28;20026;-61
2023/04/17 06:37:31;;;;;;;45.58;32.47;;;;;;;7.72;100.00;102581.66;5030002;28;20421;-61
2023/04/17 06:39:57;;;;;;;42.65;29.90;;;;;;;7.74;100.00;102585.13;5024903;28;20053;-61
2023/04/17 06:42:22;;;;;;;42.85;29.52;;;;;;;7.74;100.00;102589.53;5026138;28;20110;-60
2023/04/17 06:44:47;;;;;;;44.17;30.63;;;;;;;7.75;100.00;102589.47;5016812;28;20383;-61
2023/04/17 06:47:13;;;;;;;45.28;32.63;;;;;;;7.76;100.00;102590.34;5019300;28;20107;-61
2023/04/17 06:49:38;;;;;;;41.60;31.27;;;;;;;7.76;100.00;102587.69;5022145;28;20619;-61
2023/04/17 06:52:04;;;;;;;44.83;31.13;;;;;;;7.80;100.00;102589.31;5018836;28;20044;-61
2023/04/17 06:54:29;;;;;;;45.33;31.27;;;;;;;7.82;100.00;102589.28;5022823;28;20102;-61
2023/04/17 06:56:55;;;;;;;47.53;32.45;;;;;;;7.84;100.00;102595.34;5024588;28;20432;-62
2023/04/17 06:59:20;;;;;;;42.75;30.90;;;;;;;7.82;100.00;102595.41;5025385;28;20021;-59
2023/04/17 07:01:46;;;;;;;41.33;30.73;;;;;;;7.83;100.00;102599.78;5029350;28;20022;-61
2023/04/17 07:04:11;;;;;;;46.38;32.88;;;;;;;7.85;100.00;102602.38;5013937;28;20087;-61
2023/04/17 07:06:38;;;;;;;46.63;31.65;;;;;;;7.89;100.00;102606.63;5027392;28;20026;-61
2023/04/17 07:09:04;;;;;;;41.30;30.30;;;;;;;7.90;100.00;102611.88;5027858;28;20334;-62
2023/04/17 07:11:30;;;;;;;44.28;30.83;;;;;;;7.93;100.00;102610.91;5045790;28;20139;-62
2023/04/17 07:13:55;;;;;;;44.00;30.75;;;;;;;7.92;100.00;102610.03;5027890;28;20065;-61
2023/04/17 07:16:23;;;;;;;44.75;31.38;;;;;;;7.95;100.00;102612.56;5029171;28;20025;-61
2023/04/17 07:18:50;;;;;;;43.95;31.88;;;;;;;7.95;100.00;102617.00;5031914;28;20033;-61
2023/04/17 07:21:15;;;;;;;42.97;30.77;;;;;;;7.99;100.00;102617.75;5030337;28;20026;-62
2023/04/17 07:23:40;;;;;;;43.95;30.92;;;;;;;7.97;100.00;102621.28;5012933;28;20386;-61
2023/04/17 07:26:06;;;;;;;45.17;31.20;;;;;;;8.00;100.00;102627.41;5018797;28;20026;-61
2023/04/17 07:28:32;;;;;;;43.67;30.23;;;;;;;8.01;100.00;102630.00;5020835;28;20029;-61
2023/04/17 07:30:57;;;;;;;42.28;30.80;;;;;;;8.04;100.00;102636.94;5030236;28;20045;-61
2023/04/17 07:33:23;;;;;;;44.33;30.38;;;;;;;8.05;100.00;102631.59;5025020;28;20037;-62
2023/04/17 07:35:48;;;;;;;45.78;31.02;;;;;;;8.06;100.00;102625.41;5048204;28;20029;-61
2023/04/17 07:38:13;;;;;;;44.90;32.03;;;;;;;8.08;100.00;102628.00;5038436;28;20050;-62
2023/04/17 07:40:39;;;;;;;44.53;31.15;;;;;;;8.09;100.00;102632.34;5041164;28;20033;-61
2023/04/17 07:43:04;;;;;;;41.65;32.05;;;;;;;8.09;100.00;102627.06;5033018;28;20048;-62
2023/04/17 07:45:29;;;;;;;44.75;31.33;;;;;;;8.08;100.00;102628.84;5035119;28;20079;-60
2023/04/17 07:47:55;;;;;;;41.72;31.75;;;;;;;8.14;100.00;102622.44;5038604;28;20021;-62
2023/04/17 07:50:20;;;;;;;42.13;31.27;;;;;;;8.20;100.00;102631.97;5038096;28;20092;-62
2023/04/17 07:52:46;;;;;;;43.22;32.45;;;;;;;8.21;100.00;102634.56;5041571;28;20086;-62
2023/04/17 07:55:11;;;;;;;41.03;30.50;;;;;;;8.23;100.00;102635.34;5040965;28;20028;-62
2023/04/17 07:57:41;;;;;;;41.13;31.23;;;;;;;8.28;100.00;102636.03;5043699;28;20090;-62
2023/04/17 08:00:12;;;;;;;42.17;31.92;;;;;;;8.33;100.00;102636.72;5045916;28;20107;-62
2023/04/17 08:02:37;;;;;;;46.38;32.92;;;;;;;8.37;100.00;102632.16;5037856;28;20390;-61
2023/04/17 08:05:04;;;;;;;45.08;33.85;;;;;;;8.37;100.00;102641.91;5039623;28;20025;-62
2023/04/17 08:07:29;;;;;;;42.50;33.60;;;;;;;8.35;100.00;102639.31;5022042;28;20036;-62
2023/04/17 08:09:55;;;;;;;46.17;32.92;;;;;;;8.37;100.00;102639.25;5052168;28;20041;-62
2023/04/17 08:12:20;;;;;;;45.28;33.30;;;;;;;8.43;100.00;102641.72;5037643;28;20083;-62
2023/04/17 08:14:45;;;;;;;45.13;31.58;;;;;;;8.48;100.00;102637.09;5045486;28;20392;-61
2023/04/17 08:17:11;;;;;;;39.22;30.95;;;;;;;8.56;100.00;102640.31;5039806;28;20025;-61
2023/04/17 08:19:36;;;;;;;40.78;31.58;;;;;;;8.64;100.00;102638.22;5046167;28;20032;-61
2023/04/17 08:22:03;;;;;;;39.22;30.83;;;;;;;8.72;100.00;102647.63;5041441;28;20108;-62
2023/04/17 08:24:30;;;;;;;38.88;30.02;;;;;;;8.81;100.00;102642.84;5037670;28;20112;-62
2023/04/17 08:26:56;;;;;;;38.13;29.35;;;;;;;8.86;100.00;102648.81;5042181;28;20083;-60
2023/04/17 08:29:21;;;;;;;38.95;28.35;;;;;;;8.93;100.00;102645.91;5045892;28;20462;-63
2023/04/17 08:31:46;;;;;;;36.80;27.08;;;;;;;8.96;100.00;102649.31;5038045;28;20021;-63
2023/04/17 08:34:12;;;;;;;34.95;26.85;;;;;;;9.02;100.00;102650.81;5031173;28;20108;-63
2023/04/17 08:36:37;;;;;;;36.42;27.55;;;;;;;9.06;100.00;102645.34;5033354;28;20072;-63
2023/04/17 08:39:03;;;;;;;32.95;26.60;;;;;;;9.11;100.00;102647.81;5040408;28;20025;-63
2023/04/17 08:41:36;;;;;;;37.45;26.80;;;;;;;9.14;100.00;102649.47;5039834;28;20021;-63
2023/04/17 08:44:02;;;;;;;34.70;26.83;;;;;;;9.20;100.00;102649.22;5036525;28;20037;-63
2023/04/17 08:46:29;;;;;;;34.00;25.92;;;;;;;9.21;99.62;102650.94;5028557;28;20087;-63
2023/04/17 08:48:55;;;;;;;34.45;26.85;;;;;;;9.24;99.51;102648.13;5031582;28;20522;-63
2023/04/17 08:51:23;;;;;;;36.38;27.52;;;;;;;9.29;99.89;102647.94;5034611;28;20026;-61
2023/04/17 08:53:49;;;;;;;34.47;27.43;;;;;;;9.29;98.15;102646.16;5031268;28;20045;-63
2023/04/17 08:56:14;;;;;;;35.10;27.23;;;;;;;9.33;100.00;102652.22;5032027;28;20029;-64
2023/04/17 08:58:40;;;;;;;35.20;26.17;;;;;;;9.35;98.60;102645.91;5029056;28;20029;-63
2023/04/17 09:01:10;;;;;;;34.22;26.60;;;;;;;9.40;98.47;102648.38;5029276;28;20463;-64
2023/04/17 09:03:46;;;;;;;34.75;27.65;;;;;;;9.47;98.90;102647.16;5035357;28;20505;-64
2023/04/17 09:06:12;;;;;;;37.83;27.80;;;;;;;9.56;99.06;102643.25;5036638;28;20414;-64
2023/04/17 09:08:39;;;;;;;34.50;26.35;;;;;;;9.63;96.97;102644.72;5032658;28;20057;-64
2023/04/17 09:11:15;;;;;;;34.78;27.77;;;;;;;9.74;98.13;102653.09;5023699;28;20103;-63
2023/04/17 09:13:40;;;;;;;39.55;27.75;;;;;;;9.84;97.46;102647.34;5023683;28;20044;-64
2023/04/17 09:16:08;;;;;;;34.92;27.15;;;;;;;9.89;96.87;102648.88;5026159;28;20029;-64
2023/04/17 09:18:35;;;;;;;35.33;26.90;;;;;;;9.96;96.83;102654.78;5027439;28;20025;-63
2023/04/17 09:21:02;;;;;;;31.63;26.50;;;;;;;10.03;96.45;102650.91;5036028;28;20022;-63
2023/04/17 09:23:29;;;;;;;33.92;26.88;;;;;;;10.11;96.18;102654.06;5045658;28;20029;-63
2023/04/17 09:26:06;;;;;;;34.63;26.75;;;;;;;10.18;95.10;102650.19;5030417;28;20045;-63
2023/04/17 09:28:34;;;;;;;36.67;25.23;;;;;;;10.23;94.11;102652.66;5025396;28;20021;-63
2023/04/17 09:31:02;;;;;;;32.30;25.75;;;;;;;10.30;94.03;102648.75;5030371;28;20041;-64
2023/04/17 09:33:28;;;;;;;33.75;27.08;;;;;;;10.38;94.02;102652.91;5025224;28;20029;-63
2023/04/17 09:35:53;;;;;;;33.42;26.25;;;;;;;10.39;92.95;102651.97;5028580;28;20034;-63
2023/04/17 09:38:35;;;;;;;32.35;25.60;;;;;;;10.46;94.11;102648.94;5027972;28;20026;-63
2023/04/17 09:41:00;;;;;;;32.65;25.95;;;;;;;10.54;91.92;102648.56;5015199;28;20077;-63
2023/04/17 09:43:42;;;;;;;33.67;26.60;;;;;;;10.64;91.76;102652.53;5021311;28;20487;-64
2023/04/17 09:46:07;;;;;;;32.22;25.63;;;;;;;10.67;89.96;102647.06;5002982;28;20041;-64
2023/04/17 09:48:32;;;;;;;32.47;25.80;;;;;;;10.75;90.91;102644.03;5030237;28;20025;-63
2023/04/17 09:50:58;;;;;;;34.80;25.33;;;;;;;10.89;91.06;102646.88;5033479;28;20441;-63
2023/04/17 09:53:23;;;;;;;35.03;26.98;;;;;;;11.01;90.42;102645.41;5031530;28;20069;-63
2023/04/17 09:55:52;;;;;;;32.08;25.35;;;;;;;11.13;90.50;102645.75;5037300;28;20087;-63
2023/04/17 09:58:18;;;;;;;33.47;26.42;;;;;;;11.26;89.07;102646.84;5039683;28;20017;-63
2023/04/17 10:00:43;;;;;;;32.45;25.88;;;;;;;11.41;88.17;102653.19;5035965;28;20413;-63
2023/04/17 10:03:14;;;;;;;32.95;25.27;;;;;;;11.51;88.44;102638.47;5029083;28;20029;-63
2023/04/17 10:05:39;;;;;;;31.92;24.58;;;;;;;11.64;88.02;102646.66;5033213;28;20120;-63
2023/04/17 10:08:05;;;;;;;32.42;24.55;;;;;;;11.78;87.47;102643.28;5023199;28;20100;-63
2023/04/17 10:10:32;;;;;;;32.63;25.02;;;;;;;11.94;86.77;102644.22;5021905;28;20054;-63
2023/04/17 10:13:00;;;;;;;31.98;26.83;;;;;;;12.16;86.48;102635.94;5031070;28;20056;-63
2023/04/17 10:15:27;;;;;;;31.93;24.67;;;;;;;12.39;84.08;102632.00;5027289;28;20756;-63
2023/04/17 10:17:55;;;;;;;29.70;23.65;;;;;;;12.64;82.75;102637.75;5032625;28;20037;-63
2023/04/17 10:20:43;;;;;;;29.17;24.27;;;;;;;12.76;83.04;102637.91;5032799;28;20044;-63
2023/04/17 10:23:30;;;;;;;32.63;24.35;;;;;;;12.89;83.33;102634.53;5028219;28;20041;-63
2023/04/17 10:26:34;;;;;;;30.05;23.90;;;;;;;13.14;82.86;102634.81;5019263;28;20120;-63
2023/04/17 10:28:59;;;;;;;28.75;22.23;;;;;;;13.25;76.94;102633.34;4989418;28;20034;-63
2023/04/17 10:32:02;;;;;;;31.02;23.20;;;;;;;13.41;78.38;102626.16;4994871;28;20565;-64
2023/04/17 10:34:37;;;;;;;30.60;22.48;;;;;;;13.64;77.73;102627.44;5032194;28;20038;-63
2023/04/17 10:37:03;;;;;;;28.85;21.52;;;;;;;13.71;71.92;102627.91;5024775;28;20577;-64
2023/04/17 10:39:49;;;;;;;28.30;21.95;;;;;;;14.09;77.17;102624.69;5028907;28;20136;-63
2023/04/17 10:42:19;;;;;;;28.00;22.42;;;;;;;14.34;74.68;102628.44;5036771;28;20100;-63
2023/04/17 10:44:45;;;;;;;30.20;21.77;;;;;;;14.30;70.01;102630.47;5015692;28;20482;-63
2023/04/17 10:47:14;;;;;;;26.42;22.30;;;;;;;14.32;72.02;102627.69;5040031;28;20032;-63
2023/04/17 10:49:48;;;;;;;27.13;21.63;;;;;;;14.48;72.74;102624.91;5024236;28;20497;-63
2023/04/17 10:52:31;;;;;;;26.83;21.08;;;;;;;14.64;73.61;102616.75;5032542;28;20382;-63
2023/04/17 10:55:05;;;;;;;27.05;21.00;;;;;;;14.63;70.06;102620.41;5022106;28;20029;-63
2023/04/17 10:57:49;;;;;;;29.30;21.95;;;;;;;14.69;70.31;102619.97;5030122;28;20026;-63
2023/04/17 11:00:15;;;;;;;26.38;20.30;;;;;;;14.72;67.83;102614.44;5025895;28;20033;-63
2023/04/17 11:02:44;;;;;;;27.42;20.30;;;;;;;14.88;67.51;102615.13;5016517;28;20136;-63
2023/04/17 11:05:10;;;;;;;29.30;20.40;;;;;;;15.08;66.37;102616.47;5020008;28;20513;-63
2023/04/17 11:07:36;;;;;;;22.55;19.70;;;;;;;15.31;66.23;102616.72;5015387;28;20041;-63